Time;durP1;ratioP1;P1;durP2;ratioP2;P2;SDS_P1;SDS_P2;PMS_P1;PMS_P2;Temp;Humidity;BMP_temperature;BMP_pressure;BME280_temperature;BME280_humidity;BME280_pressure;Samples;Min_cycle;Max_cycle;Signal;HPM_P1;HPM_P2
2023/01/11 00:00:56;;;;;;;1.80;1.10;;;8.40;99.90;;;;;;4141635;28;20050;-69
2023/01/11 00:02:59;;;;;;;4.30;1.20;;;8.40;99.90;;;;;;4148186;28;20115;-69
2023/01/11 00:04:59;;;;;;;1.27;0.90;;;8.40;99.90;;;;;;4145043;28;20506;-70
2023/01/11 00:07:00;;;;;;;3.10;1.13;;;8.40;99.90;;;;;;4144169;28;20038;-70
2023/01/11 00:09:01;;;;;;;2.17;0.93;;;8.40;99.90;;;;;;4133910;28;20037;-70
2023/01/11 00:11:02;;;;;;;3.17;1.15;;;8.40;99.90;;;;;;4145386;28;20034;-69
2023/01/11 00:13:02;;;;;;;3.58;0.75;;;8.50;99.90;;;;;;4145080;28;20104;-69
2023/01/11 00:15:03;;;;;;;2.60;1.08;;;8.50;99.90;;;;;;4145366;28;20026;-70
2023/01/11 00:17:04;;;;;;;1.92;0.95;;;8.50;99.90;;;;;;4144336;28;20030;-70
2023/01/11 00:19:04;;;;;;;2.80;1.00;;;8.50;99.90;;;;;;4156147;28;20037;-70
2023/01/11 00:21:07;;;;;;;2.30;1.00;;;8.60;99.90;;;;;;4144624;28;20034;-70
2023/01/11 00:23:07;;;;;;;2.60;0.90;;;8.60;99.90;;;;;;4142445;28;20044;-69
2023/01/11 00:25:08;;;;;;;1.75;0.88;;;8.60;99.90;;;;;;4145190;28;20050;-70
2023/01/11 00:27:09;;;;;;;1.40;1.00;;;8.60;99.90;;;;;;4146265;28;20033;-68
2023/01/11 00:29:09;;;;;;;0.90;0.75;;;8.60;99.90;;;;;;4144901;28;20405;-69
2023/01/11 00:31:10;;;;;;;1.13;0.80;;;8.60;99.90;;;;;;4144895;28;20042;-68
2023/01/11 00:33:10;;;;;;;3.90;1.42;;;8.70;99.90;;;;;;4144744;28;20038;-69
2023/01/11 00:35:11;;;;;;;2.10;1.10;;;8.60;99.90;;;;;;4144811;28;20057;-70
2023/01/11 00:37:12;;;;;;;1.60;0.80;;;8.70;99.90;;;;;;4145200;28;20061;-69
2023/01/11 00:39:12;;;;;;;1.35;0.95;;;8.70;99.90;;;;;;4142512;28;20430;-69
2023/01/11 00:48:12;;;;;;;2.08;0.90;;;8.80;99.90;;;;;;4148253;28;20092;-70
2023/01/11 00:50:12;;;;;;;1.95;0.88;;;8.80;99.90;;;;;;4146481;28;20034;-70
2023/01/11 00:52:13;;;;;;;3.13;0.95;;;8.80;99.90;;;;;;4144252;28;20031;-69
2023/01/11 00:54:14;;;;;;;1.48;0.98;;;8.80;99.90;;;;;;4144976;28;20062;-70
2023/01/11 00:56:14;;;;;;;0.98;0.57;;;8.80;99.90;;;;;;4144618;28;20049;-70
2023/01/11 00:58:15;;;;;;;1.88;0.80;;;8.80;99.90;;;;;;4148585;28;20832;-70
2023/01/11 01:00:17;;;;;;;3.15;0.80;;;8.80;99.90;;;;;;4118059;28;20406;-70
2023/01/11 01:02:17;;;;;;;2.30;1.03;;;8.80;99.90;;;;;;4140425;28;20026;-70
2023/01/11 01:04:18;;;;;;;3.05;1.00;;;8.80;99.90;;;;;;4144669;28;20049;-70
2023/01/11 01:06:18;;;;;;;1.92;0.98;;;8.80;99.90;;;;;;4143615;28;20029;-70
2023/01/11 01:08:19;;;;;;;1.90;1.00;;;8.80;99.90;;;;;;4141789;28;20486;-70
2023/01/11 01:10:20;;;;;;;3.90;1.10;;;8.80;99.90;;;;;;4144487;28;20088;-70
2023/01/11 01:14:41;;;;;;;1.67;0.98;;;8.90;99.90;;;;;;4147833;28;20034;-69
2023/01/11 01:16:41;;;;;;;3.05;0.70;;;8.90;99.90;;;;;;4140876;28;20040;-70
2023/01/11 01:18:42;;;;;;;1.75;0.70;;;8.90;99.90;;;;;;4144391;28;20492;-70
2023/01/11 01:20:42;;;;;;;1.23;0.63;;;8.90;99.90;;;;;;4144003;28;20044;-70
2023/01/11 01:22:43;;;;;;;1.02;0.60;;;8.90;99.90;;;;;;4143853;28;20038;-69
2023/01/11 01:24:43;;;;;;;1.60;0.88;;;8.90;99.90;;;;;;4148492;28;20030;-70
2023/01/11 01:26:44;;;;;;;2.35;0.60;;;8.90;99.90;;;;;;4142529;28;20080;-70
2023/01/11 01:28:45;;;;;;;1.98;0.63;;;9.00;99.90;;;;;;4145190;28;20378;-70
2023/01/11 01:30:51;;;;;;;1.33;0.73;;;9.00;99.90;;;;;;4147593;28;20056;-69
2023/01/11 01:32:52;;;;;;;0.95;0.52;;;9.00;99.90;;;;;;4143864;28;20213;-70
2023/01/11 01:34:52;;;;;;;3.65;0.77;;;9.10;99.90;;;;;;4154467;28;20453;-70
2023/01/11 01:36:53;;;;;;;2.35;0.85;;;9.10;99.90;;;;;;4144263;28;20042;-70
2023/01/11 01:38:53;;;;;;;0.73;0.60;;;9.10;99.90;;;;;;4144338;28;20030;-70
2023/01/11 01:40:55;;;;;;;1.02;0.70;;;9.10;99.90;;;;;;4143848;28;20042;-70
2023/01/11 01:42:56;;;;;;;0.40;0.33;;;9.10;99.90;;;;;;4144547;28;20026;-70
2023/01/11 01:45:06;;;;;;;1.75;0.80;;;9.10;99.90;;;;;;4144370;28;20508;-70
2023/01/11 01:47:06;;;;;;;2.40;0.47;;;9.10;99.90;;;;;;4145660;28;20033;-70
2023/01/11 01:49:12;;;;;;;0.98;0.50;;;9.10;99.90;;;;;;4145220;28;20040;-70
2023/01/11 01:51:19;;;;;;;1.05;0.52;;;9.10;99.90;;;;;;4143829;28;20034;-70
2023/01/11 01:53:34;;;;;;;1.15;0.65;;;9.20;99.90;;;;;;4142920;28;20529;-70
2023/01/11 01:55:38;;;;;;;0.85;0.35;;;9.20;99.90;;;;;;4151049;28;20477;-69
2023/01/11 01:57:41;;;;;;;1.30;0.60;;;9.20;99.90;;;;;;4146026;28;20045;-69
2023/01/11 01:59:42;;;;;;;0.85;0.40;;;9.20;99.90;;;;;;4147475;28;20045;-69
2023/01/11 02:01:46;;;;;;;0.88;0.47;;;9.20;99.90;;;;;;4147468;28;20473;-69
2023/01/11 02:03:48;;;;;;;0.75;0.55;;;9.20;99.90;;;;;;4143704;28;20046;-70
2023/01/11 02:05:50;;;;;;;1.48;0.47;;;9.30;99.90;;;;;;4143685;28;20029;-71
2023/01/11 02:07:53;;;;;;;0.45;0.40;;;9.30;99.90;;;;;;4141549;28;20026;-71
2023/01/11 02:10:11;;;;;;;0.88;0.57;;;9.40;99.90;;;;;;4149027;28;20026;-70
2023/01/11 02:12:14;;;;;;;1.17;0.52;;;9.40;99.90;;;;;;4137241;28;20041;-70
2023/01/11 02:14:17;;;;;;;1.33;0.40;;;9.40;99.90;;;;;;4143976;28;20030;-70
2023/01/11 02:16:18;;;;;;;1.63;0.63;;;9.40;99.90;;;;;;4143454;28;20034;-70
2023/01/11 02:18:20;;;;;;;0.70;0.45;;;9.50;99.90;;;;;;4142629;28;20049;-70
2023/01/11 02:20:31;;;;;;;1.45;0.52;;;9.50;99.90;;;;;;4137891;28;20478;-70
2023/01/11 02:23:01;;;;;;;2.08;0.47;;;9.60;99.90;;;;;;4143705;28;20072;-71
2023/01/11 02:25:21;;;;;;;1.35;0.60;;;9.60;99.90;;;;;;4142959;28;20044;-70
2023/01/11 02:27:45;;;;;;;0.43;0.35;;;9.70;99.90;;;;;;4137344;28;20408;-70
2023/01/11 02:30:09;;;;;;;1.88;0.60;;;9.80;99.90;;;;;;4142186;28;20026;-70
2023/01/11 02:32:26;;;;;;;1.45;0.40;;;9.90;99.90;;;;;;4143121;28;20057;-69
2023/01/11 02:34:57;;;;;;;0.45;0.22;;;10.00;99.90;;;;;;4145174;28;20030;-70
2023/01/11 02:37:25;;;;;;;0.10;0.10;;;10.10;99.90;;;;;;4131224;28;20105;-70
2023/01/11 02:39:31;;;;;;;0.35;0.10;;;10.20;99.90;;;;;;4126331;28;20034;-71
2023/01/11 02:46:40;;;;;;;3.58;0.73;;;10.40;99.90;;;;;;4135518;28;20489;-70
2023/01/11 02:48:43;;;;;;;3.40;0.50;;;10.50;99.90;;;;;;4153631;28;20041;-70
2023/01/11 02:51:07;;;;;;;1.90;0.20;;;10.60;99.90;;;;;;4143036;28;20113;-70
2023/01/11 02:53:24;;;;;;;0.25;0.10;;;10.60;99.90;;;;;;4161121;28;20037;-70
2023/01/11 02:55:29;;;;;;;0.60;0.20;;;10.70;99.90;;;;;;4144000;28;20029;-71
2023/01/11 02:57:31;;;;;;;0.30;0.20;;;10.70;99.90;;;;;;4148324;28;20033;-70
2023/01/11 02:59:34;;;;;;;0.15;0.10;;;10.80;99.90;;;;;;4148780;28;20037;-70
2023/01/11 03:01:50;;;;;;;0.50;0.20;;;10.80;99.90;;;;;;4144068;28;20054;-70
2023/01/11 03:03:51;;;;;;;1.05;0.25;;;10.90;99.90;;;;;;4144587;28;20038;-71
2023/01/11 03:06:14;;;;;;;0.52;0.10;;;10.90;99.90;;;;;;4144518;28;20377;-70
2023/01/11 03:08:28;;;;;;;0.10;0.10;;;11.00;99.90;;;;;;4149453;28;20125;-70
2023/01/11 03:10:53;;;;;;;0.10;0.10;;;11.00;99.90;;;;;;4143883;28;20041;-70
2023/01/11 03:13:15;;;;;;;0.32;0.20;;;11.00;99.90;;;;;;4144337;28;20026;-70
2023/01/11 03:15:40;;;;;;;0.30;0.20;;;11.00;99.90;;;;;;4143020;28;20096;-70
2023/01/11 03:18:27;;;;;;;0.20;0.10;;;11.10;99.90;;;;;;4150108;28;20022;-70
2023/01/11 03:20:41;;;;;;;2.05;0.20;;;11.10;99.90;;;;;;4129642;28;20066;-71
2023/01/11 03:23:01;;;;;;;0.68;0.30;;;11.10;99.90;;;;;;4143066;28;20042;-70
2023/01/11 03:25:58;;;;;;;0.28;0.20;;;11.10;99.90;;;;;;4134667;28;20078;-71
2023/01/11 03:28:11;;;;;;;0.55;0.10;;;11.10;99.90;;;;;;4050358;29;20523;-70
2023/01/11 03:30:27;;;;;;;0.45;0.20;;;11.20;99.90;;;;;;4120768;28;20520;-70
2023/01/11 03:32:51;;;;;;;0.25;0.10;;;11.10;99.90;;;;;;4151089;28;20167;-70
2023/01/11 03:35:17;;;;;;;0.17;0.10;;;11.20;99.90;;;;;;4160622;28;20029;-71
2023/01/11 03:37:26;;;;;;;0.93;0.20;;;11.10;99.90;;;;;;4158544;28;20022;-70
2023/01/11 03:39:41;;;;;;;0.82;0.30;;;11.10;99.90;;;;;;4149125;28;20037;-70
2023/01/11 03:41:43;;;;;;;0.15;0.10;;;11.10;99.90;;;;;;4146877;28;20064;-70
2023/01/11 03:43:47;;;;;;;0.30;0.10;;;11.10;99.90;;;;;;4147622;28;20033;-70
2023/01/11 03:45:52;;;;;;;0.20;0.13;;;11.10;99.90;;;;;;4146343;28;20103;-70
2023/01/11 03:47:54;;;;;;;0.20;0.10;;;11.10;99.90;;;;;;4152719;28;22822;-70
2023/01/11 03:50:07;;;;;;;0.75;0.20;;;11.20;99.90;;;;;;4147241;28;20092;-70
2023/01/11 03:52:11;;;;;;;0.68;0.20;;;11.20;99.90;;;;;;4146882;28;20022;-71
2023/01/11 03:54:19;;;;;;;0.88;0.13;;;11.10;99.90;;;;;;4133783;28;20161;-70
2023/01/11 03:56:23;;;;;;;0.20;0.10;;;11.20;99.90;;;;;;4147031;28;20058;-70
2023/01/11 03:58:26;;;;;;;0.10;0.10;;;11.10;99.90;;;;;;4152442;28;20029;-71
2023/01/11 04:00:28;;;;;;;;;;;11.10;99.90;;;;;;4146110;28;20042;-71
2023/01/11 04:02:35;;;;;;;0.10;0.10;;;11.10;99.90;;;;;;4147320;28;19918;-70
2023/01/11 04:04:35;;;;;;;0.63;0.15;;;11.20;99.90;;;;;;4147081;28;20072;-70
2023/01/11 04:06:37;;;;;;;0.40;0.10;;;11.20;99.90;;;;;;4145658;28;20046;-70
2023/01/11 04:08:38;;;;;;;0.30;0.20;;;11.10;99.90;;;;;;4155364;28;20022;-70
2023/01/11 04:10:38;;;;;;;0.08;0.08;;;11.20;99.90;;;;;;4145526;28;20038;-70
2023/01/11 04:12:39;;;;;;;0.15;0.10;;;11.20;99.90;;;;;;4147328;28;20048;-71
2023/01/11 04:14:39;;;;;;;0.63;0.25;;;11.20;99.90;;;;;;4146018;28;20116;-69
2023/01/11 04:16:40;;;;;;;0.32;0.10;;;11.10;99.90;;;;;;4146365;28;20038;-70
2023/01/11 04:18:41;;;;;;;1.25;0.30;;;11.10;99.90;;;;;;4154140;28;20076;-70
2023/01/11 04:20:41;;;;;;;1.17;0.30;;;11.10;99.90;;;;;;4129231;28;20135;-70
2023/01/11 04:22:42;;;;;;;1.50;0.20;;;11.10;99.90;;;;;;4146325;28;20033;-70
2023/01/11 04:24:42;;;;;;;0.10;0.10;;;11.10;99.90;;;;;;4145068;28;20034;-70
2023/01/11 04:26:44;;;;;;;1.00;0.20;;;11.20;99.90;;;;;;4145986;28;20057;-70
2023/01/11 04:28:44;;;;;;;0.20;0.10;;;11.20;99.90;;;;;;4153557;28;20440;-70
2023/01/11 04:30:45;;;;;;;0.57;0.13;;;11.20;99.90;;;;;;4145763;28;20080;-71
2023/01/11 04:32:45;;;;;;;0.57;0.30;;;11.20;99.90;;;;;;4140976;28;20038;-70
2023/01/11 04:34:46;;;;;;;2.13;0.10;;;11.20;99.90;;;;;;4138471;28;20092;-70
2023/01/11 04:36:47;;;;;;;0.28;0.20;;;11.20;99.90;;;;;;4137342;28;20046;-70
2023/01/11 04:38:47;;;;;;;0.25;0.20;;;11.20;99.90;;;;;;4140168;28;20501;-70
2023/01/11 04:40:48;;;;;;;0.40;0.22;;;11.20;99.90;;;;;;4139627;28;20042;-70
2023/01/11 04:42:48;;;;;;;1.65;0.20;;;11.20;99.90;;;;;;4141385;28;20050;-70
2023/01/11 04:44:50;;;;;;;0.73;0.20;;;11.20;99.90;;;;;;4140362;28;20041;-70
2023/01/11 04:46:50;;;;;;;0.15;0.15;;;11.20;99.90;;;;;;4140009;28;20030;-70
2023/01/11 04:48:51;;;;;;;0.25;0.10;;;11.20;99.90;;;;;;4145214;28;20050;-70
2023/01/11 04:50:52;;;;;;;0.20;0.10;;;11.20;99.90;;;;;;4141154;28;20030;-70
2023/01/11 04:52:52;;;;;;;1.00;0.50;;;11.20;99.90;;;;;;4140032;28;20030;-70
2023/01/11 04:54:53;;;;;;;0.08;0.08;;;11.20;99.90;;;;;;4142333;28;20161;-70
2023/01/11 04:56:53;;;;;;;0.17;0.17;;;11.20;99.90;;;;;;4137850;28;20038;-70
2023/01/11 04:58:54;;;;;;;0.38;0.10;;;11.20;99.90;;;;;;4143632;28;20058;-70
2023/01/11 05:00:55;;;;;;;0.22;0.22;;;11.20;99.90;;;;;;4141120;28;20042;-70
2023/01/11 05:02:58;;;;;;;0.17;0.10;;;11.30;99.90;;;;;;4138444;28;20053;-71
2023/01/11 05:04:58;;;;;;;0.10;0.10;;;11.30;99.90;;;;;;4134851;28;20053;-70
2023/01/11 05:07:00;;;;;;;0.10;0.10;;;11.30;99.90;;;;;;4138928;28;20053;-70
2023/01/11 05:09:00;;;;;;;0.47;0.10;;;11.30;99.90;;;;;;4139347;28;20038;-70
2023/01/11 05:11:03;;;;;;;0.68;0.30;;;11.30;99.90;;;;;;4139311;28;20377;-71
2023/01/11 05:13:04;;;;;;;0.30;0.30;;;11.30;99.90;;;;;;4139248;28;20030;-70
2023/01/11 05:15:05;;;;;;;1.05;0.30;;;11.30;99.90;;;;;;4138081;28;20030;-71
2023/01/11 05:17:05;;;;;;;1.05;0.40;;;11.30;99.90;;;;;;4141443;28;20037;-69
2023/01/11 05:19:07;;;;;;;0.40;0.30;;;11.30;99.90;;;;;;4141960;28;20034;-70
2023/01/11 05:21:10;;;;;;;1.45;0.43;;;11.30;99.90;;;;;;4135227;28;20026;-70
2023/01/11 05:23:10;;;;;;;0.30;0.30;;;11.30;99.90;;;;;;4142500;28;20125;-69
2023/01/11 05:25:11;;;;;;;0.85;0.35;;;11.30;99.90;;;;;;4141314;28;20030;-71
2023/01/11 05:27:11;;;;;;;0.45;0.20;;;11.30;99.90;;;;;;4138094;28;20122;-69
2023/01/11 05:29:19;;;;;;;3.13;0.30;;;11.30;99.90;;;;;;4140155;28;20038;-69
2023/01/11 05:31:20;;;;;;;0.30;0.10;;;11.30;99.90;;;;;;4141297;28;20042;-70
2023/01/11 05:33:20;;;;;;;1.30;0.30;;;11.30;99.90;;;;;;4126009;28;20045;-70
2023/01/11 05:35:21;;;;;;;0.20;0.10;;;11.30;99.90;;;;;;4143617;28;20434;-70
2023/01/11 05:37:22;;;;;;;1.08;0.30;;;11.30;99.90;;;;;;4149103;28;20393;-70
2023/01/11 05:39:22;;;;;;;0.93;0.28;;;11.30;99.90;;;;;;4152055;28;20045;-70
2023/01/11 05:41:25;;;;;;;0.30;0.20;;;11.30;99.90;;;;;;4142198;28;20767;-70
2023/01/11 05:43:27;;;;;;;0.13;0.05;;;11.30;99.90;;;;;;4139838;28;20390;-70
2023/01/11 05:45:27;;;;;;;0.10;0.10;;;11.30;99.90;;;;;;4139495;28;20092;-70
2023/01/11 05:47:28;;;;;;;0.20;0.10;;;11.30;99.90;;;;;;4138988;28;20414;-70
2023/01/11 05:49:28;;;;;;;0.47;0.20;;;11.30;99.90;;;;;;4137517;28;20029;-69
2023/01/11 05:51:31;;;;;;;1.58;0.20;;;11.40;99.90;;;;;;4155706;28;20046;-70
2023/01/11 05:53:31;;;;;;;0.10;0.10;;;11.30;99.90;;;;;;4154047;28;20068;-70
2023/01/11 05:55:32;;;;;;;0.20;0.10;;;11.40;99.90;;;;;;4146200;28;20046;-69
2023/01/11 05:57:33;;;;;;;0.98;0.25;;;11.40;99.90;;;;;;4162421;28;20053;-70
2023/01/11 05:59:33;;;;;;;2.00;0.28;;;11.40;99.90;;;;;;4147843;28;20499;-69
2023/01/11 06:01:34;;;;;;;0.35;0.10;;;11.40;99.90;;;;;;4138383;28;20497;-69
2023/01/11 06:03:35;;;;;;;1.10;0.30;;;11.40;99.90;;;;;;4139827;28;20041;-69
2023/01/11 06:05:37;;;;;;;0.10;0.10;;;11.40;99.90;;;;;;4139477;28;20046;-69
2023/01/11 06:07:38;;;;;;;0.00;0.00;;;11.40;99.90;;;;;;4118929;28;20039;-69
2023/01/11 06:09:39;;;;;;;0.10;0.10;;;11.40;99.90;;;;;;4140500;28;20033;-69
2023/01/11 06:11:40;;;;;;;0.60;0.30;;;11.40;99.90;;;;;;4137693;28;20117;-69
2023/01/11 06:13:41;;;;;;;0.68;0.30;;;11.40;99.90;;;;;;4139934;28;20022;-69
2023/01/11 06:15:42;;;;;;;0.20;0.15;;;11.40;99.90;;;;;;4140626;28;20045;-69
2023/01/11 06:17:42;;;;;;;0.30;0.20;;;11.40;99.90;;;;;;4137724;28;20497;-69
2023/01/11 06:19:43;;;;;;;0.20;0.20;;;11.40;99.90;;;;;;4144442;28;20088;-69
2023/01/11 06:21:44;;;;;;;0.60;0.10;;;11.40;99.90;;;;;;4143696;28;20043;-69
2023/01/11 06:23:46;;;;;;;0.10;0.10;;;11.40;99.90;;;;;;4142687;28;20030;-72
2023/01/11 06:25:47;;;;;;;1.00;0.20;;;11.40;99.90;;;;;;4133795;28;20023;-72
2023/01/11 06:27:48;;;;;;;0.50;0.22;;;11.40;99.90;;;;;;4141801;28;20370;-72
2023/01/11 06:29:48;;;;;;;0.10;0.10;;;11.50;99.90;;;;;;4143110;28;20115;-72
2023/01/11 06:31:49;;;;;;;0.10;0.10;;;11.50;99.90;;;;;;4141752;28;20025;-72
2023/01/11 06:33:50;;;;;;;0.15;0.15;;;11.50;99.90;;;;;;4137444;28;20408;-72
2023/01/11 06:35:51;;;;;;;0.80;0.28;;;11.50;99.90;;;;;;4144995;28;20401;-72
2023/01/11 06:37:51;;;;;;;1.33;0.30;;;11.40;99.90;;;;;;4130870;28;20026;-72
2023/01/11 06:39:52;;;;;;;0.73;0.40;;;11.40;99.90;;;;;;4139225;28;20040;-72
2023/01/11 06:41:53;;;;;;;0.20;0.20;;;11.40;99.90;;;;;;4136969;28;20033;-72
2023/01/11 06:43:53;;;;;;;0.65;0.30;;;11.50;99.90;;;;;;4156814;28;20044;-72
2023/01/11 06:45:55;;;;;;;1.92;0.22;;;11.50;99.90;;;;;;4133008;28;20030;-72
2023/01/11 06:47:55;;;;;;;0.10;0.10;;;11.50;99.90;;;;;;4135602;28;20031;-72
2023/01/11 06:49:56;;;;;;;0.30;0.30;;;11.60;99.90;;;;;;4112334;28;20038;-71
2023/01/11 06:51:56;;;;;;;2.53;0.77;;;11.50;99.90;;;;;;4139344;28;20485;-71
2023/01/11 06:53:57;;;;;;;0.13;0.13;;;11.60;99.90;;;;;;4137491;28;20384;-72
2023/01/11 06:55:58;;;;;;;1.45;0.30;;;11.60;99.90;;;;;;4139210;28;20384;-73
2023/01/11 06:57:58;;;;;;;0.30;0.30;;;11.60;99.90;;;;;;4137041;28;20062;-73
2023/01/11 06:59:59;;;;;;;0.32;0.30;;;11.60;99.90;;;;;;4139337;28;20037;-72
2023/01/11 07:02:00;;;;;;;0.10;0.10;;;11.60;99.90;;;;;;4137958;28;20026;-72
2023/01/11 07:04:00;;;;;;;0.30;0.30;;;11.60;99.90;;;;;;4136195;28;20040;-72
2023/01/11 07:06:01;;;;;;;0.52;0.25;;;11.60;99.90;;;;;;4135275;28;20026;-71
2023/01/11 07:08:02;;;;;;;0.57;0.35;;;11.60;99.90;;;;;;4142560;28;20034;-72
2023/01/11 07:10:08;;;;;;;0.40;0.20;;;11.60;99.90;;;;;;4138352;28;20034;-73
2023/01/11 07:12:08;;;;;;;0.40;0.38;;;11.70;99.90;;;;;;4141047;28;20038;-71
2023/01/11 07:14:10;;;;;;;0.68;0.40;;;11.60;99.90;;;;;;4140944;28;20374;-72
2023/01/11 07:16:11;;;;;;;0.85;0.50;;;11.60;99.90;;;;;;4138593;28;20064;-72
2023/01/11 07:18:12;;;;;;;0.40;0.30;;;11.60;99.90;;;;;;4144897;28;20030;-72
2023/01/11 07:20:12;;;;;;;0.88;0.50;;;11.60;99.90;;;;;;4139494;28;20033;-72
2023/01/11 07:22:14;;;;;;;0.80;0.30;;;11.60;99.90;;;;;;4140541;28;20124;-71
2023/01/11 07:24:15;;;;;;;0.82;0.57;;;11.50;99.90;;;;;;4138436;28;20029;-72
2023/01/11 07:26:16;;;;;;;1.17;0.57;;;11.60;99.90;;;;;;4145073;28;20057;-71
2023/01/11 07:28:16;;;;;;;1.13;0.60;;;11.60;99.90;;;;;;4140464;28;20061;-71
2023/01/11 07:30:17;;;;;;;0.40;0.35;;;11.60;99.90;;;;;;4139498;28;20042;-72
2023/01/11 07:32:18;;;;;;;0.73;0.40;;;11.60;99.90;;;;;;4141366;28;20048;-71
2023/01/11 07:34:18;;;;;;;0.80;0.43;;;11.60;99.90;;;;;;4140051;28;20042;-72
2023/01/11 07:36:19;;;;;;;0.55;0.30;;;11.60;99.90;;;;;;4143314;28;20049;-72
2023/01/11 07:38:21;;;;;;;0.52;0.52;;;11.60;99.90;;;;;;4143028;28;20046;-72
2023/01/11 07:40:21;;;;;;;0.77;0.65;;;11.60;99.90;;;;;;4140295;28;20121;-71
2023/01/11 07:44:41;;;;;;;1.55;0.80;;;11.60;99.90;;;;;;4139528;28;20100;-72
2023/01/11 07:46:41;;;;;;;5.38;0.93;;;11.60;99.90;;;;;;4141651;28;20756;-72
2023/01/11 07:48:42;;;;;;;1.77;1.13;;;11.60;99.90;;;;;;4140957;28;20482;-72
2023/01/11 07:50:43;;;;;;;2.28;1.10;;;11.60;99.90;;;;;;4139938;28;20505;-71
2023/01/11 07:52:47;;;;;;;2.00;1.00;;;11.60;99.90;;;;;;4141803;28;20026;-70
2023/01/11 07:54:47;;;;;;;2.45;1.05;;;11.60;99.90;;;;;;4140509;28;20029;-71
2023/01/11 07:56:48;;;;;;;5.63;1.60;;;11.70;99.90;;;;;;4147358;28;20072;-72
2023/01/11 07:58:49;;;;;;;2.38;1.55;;;11.60;99.90;;;;;;4147052;28;20088;-71
2023/01/11 08:00:49;;;;;;;2.50;1.25;;;11.60;99.90;;;;;;4139864;28;20072;-72
2023/01/11 08:02:51;;;;;;;4.22;1.70;;;11.60;99.90;;;;;;4142812;28;20050;-72
2023/01/11 08:04:52;;;;;;;6.97;1.90;;;11.50;99.90;;;;;;4139044;28;20041;-72
2023/01/11 08:06:53;;;;;;;8.73;1.90;;;11.50;99.90;;;;;;4139266;28;20022;-73
2023/01/11 08:08:53;;;;;;;2.97;1.35;;;11.40;99.90;;;;;;4136105;28;20113;-72
2023/01/11 08:15:35;;;;;;;8.63;2.15;;;11.30;99.90;;;;;;4138616;28;20034;-72
2023/01/11 08:17:37;;;;;;;10.32;2.58;;;11.30;99.90;;;;;;4140487;28;20060;-71
2023/01/11 08:19:38;;;;;;;11.93;2.47;;;11.30;99.90;;;;;;4133479;28;20045;-72
2023/01/11 08:21:39;;;;;;;14.15;3.58;;;11.20;99.90;;;;;;4146394;28;20292;-72
2023/01/11 08:23:40;;;;;;;14.35;2.50;;;11.10;99.90;;;;;;4145452;28;20120;-72
2023/01/11 08:25:40;;;;;;;14.70;2.92;;;11.10;99.90;;;;;;4137761;28;20030;-72
2023/01/11 08:27:41;;;;;;;20.30;3.05;;;11.00;99.90;;;;;;4147543;28;20113;-72
2023/01/11 08:29:44;;;;;;;14.38;2.42;;;11.00;99.90;;;;;;4139444;28;20042;-72
2023/01/11 08:31:46;;;;;;;18.55;3.03;;;11.00;99.90;;;;;;4143829;28;20029;-71
2023/01/11 08:33:50;;;;;;;13.07;2.67;;;11.00;99.90;;;;;;4145863;28;20066;-71
2023/01/11 08:35:51;;;;;;;11.35;2.83;;;10.90;99.90;;;;;;4162885;28;20033;-72
2023/01/11 08:37:52;;;;;;;15.40;3.15;;;10.90;99.90;;;;;;4160845;28;20486;-72
2023/01/11 08:39:54;;;;;;;12.90;2.63;;;10.90;99.90;;;;;;4153513;28;20477;-72
2023/01/11 08:41:56;;;;;;;12.95;3.08;;;10.90;99.90;;;;;;4116729;28;20034;-72
2023/01/11 08:43:57;;;;;;;21.03;3.63;;;10.90;99.90;;;;;;4147033;28;20030;-72
2023/01/11 08:45:58;;;;;;;14.88;3.00;;;10.90;99.90;;;;;;4153318;28;20030;-73
2023/01/11 08:47:59;;;;;;;10.77;2.92;;;10.80;99.90;;;;;;4150874;28;20100;-71
2023/01/11 08:49:59;;;;;;;17.15;3.38;;;10.80;99.90;;;;;;4152575;28;20049;-71
2023/01/11 08:52:00;;;;;;;11.00;3.03;;;10.80;99.90;;;;;;4143399;28;20035;-73
2023/01/11 08:54:00;;;;;;;15.02;2.88;;;10.80;99.90;;;;;;4130724;28;20030;-71
2023/01/11 08:56:01;;;;;;;13.63;2.97;;;10.80;99.90;;;;;;4152524;28;20041;-71
2023/01/11 08:58:02;;;;;;;12.23;2.40;;;10.80;99.90;;;;;;4134413;28;20050;-71
2023/01/11 09:00:06;;;;;;;13.55;3.40;;;10.80;99.90;;;;;;4139133;28;20136;-72
2023/01/11 09:02:10;;;;;;;15.30;3.70;;;10.80;99.90;;;;;;4138078;28;20407;-70
2023/01/11 09:04:11;;;;;;;8.77;2.60;;;10.80;99.90;;;;;;4130742;28;20500;-70
2023/01/11 09:06:11;;;;;;;9.95;2.55;;;10.80;99.90;;;;;;4129789;28;20097;-72
2023/01/11 09:08:12;;;;;;;18.00;2.58;;;10.80;99.90;;;;;;4142809;28;20034;-71
2023/01/11 09:10:13;;;;;;;13.30;3.13;;;10.80;99.90;;;;;;4146488;28;20040;-71
2023/01/11 09:12:13;;;;;;;15.57;3.03;;;10.80;99.90;;;;;;4146389;28;20432;-71
2023/01/11 09:14:14;;;;;;;19.35;3.03;;;10.80;99.90;;;;;;4146756;28;20076;-71
2023/01/11 09:16:15;;;;;;;11.85;3.13;;;10.80;99.90;;;;;;4143918;28;20115;-69
2023/01/11 09:18:15;;;;;;;17.55;3.13;;;10.70;99.90;;;;;;4115886;28;20542;-70
2023/01/11 09:20:16;;;;;;;15.50;3.22;;;10.70;99.90;;;;;;4145327;28;20064;-70
2023/01/11 09:22:17;;;;;;;15.88;3.03;;;10.70;99.90;;;;;;4157529;28;20038;-71
2023/01/11 09:24:18;;;;;;;16.15;3.63;;;10.70;99.90;;;;;;4138408;28;20030;-70
2023/01/11 09:26:19;;;;;;;13.75;3.17;;;10.70;99.90;;;;;;4141436;28;20030;-71
2023/01/11 09:28:19;;;;;;;11.75;3.25;;;10.70;99.90;;;;;;4141230;28;20128;-71
2023/01/11 09:30:21;;;;;;;19.08;3.20;;;10.70;99.90;;;;;;4140771;28;20037;-71
2023/01/11 09:32:22;;;;;;;23.58;3.58;;;10.70;99.90;;;;;;4141504;28;20494;-71
2023/01/11 09:34:24;;;;;;;13.88;2.63;;;10.70;99.90;;;;;;4129486;28;20121;-71
2023/01/11 09:36:26;;;;;;;21.40;3.50;;;10.60;99.90;;;;;;4150702;28;20037;-72
2023/01/11 09:38:29;;;;;;;17.95;4.07;;;10.60;99.90;;;;;;4143027;28;20413;-71
2023/01/11 09:41:02;;;;;;;15.70;3.50;;;10.60;99.90;;;;;;4146013;28;20108;-72
2023/01/11 09:43:06;;;;;;;14.80;3.38;;;10.60;99.90;;;;;;4139975;28;20026;-72
2023/01/11 09:45:26;;;;;;;19.88;3.67;;;10.70;99.90;;;;;;4139872;28;20037;-72
2023/01/11 09:47:52;;;;;;;14.35;3.08;;;10.60;99.90;;;;;;4157033;28;20109;-71
2023/01/11 09:49:57;;;;;;;19.67;4.00;;;10.60;99.90;;;;;;4144342;28;20030;-71
2023/01/11 09:52:35;;;;;;;13.43;2.83;;;10.60;99.90;;;;;;4150888;28;20087;-71
2023/01/11 09:54:35;;;;;;;20.48;3.45;;;10.60;99.90;;;;;;4139952;28;20056;-71
2023/01/11 09:56:48;;;;;;;18.48;3.30;;;10.60;99.90;;;;;;4141755;28;20026;-73
2023/01/11 09:58:55;;;;;;;15.23;3.35;;;10.60;99.90;;;;;;4136757;28;20041;-72
2023/01/11 10:01:11;;;;;;;14.95;3.40;;;10.60;99.90;;;;;;4140831;28;20432;-71
2023/01/11 10:03:41;;;;;;;17.33;3.50;;;10.60;99.90;;;;;;4138062;28;20120;-71
2023/01/11 10:05:50;;;;;;;16.08;3.25;;;10.60;99.90;;;;;;4144928;28;20032;-73
2023/01/11 10:07:58;;;;;;;24.98;3.88;;;10.60;99.90;;;;;;4136118;28;20034;-73
2023/01/11 10:10:17;;;;;;;13.90;3.50;;;10.60;99.90;;;;;;4155246;28;20042;-73
2023/01/11 10:12:34;;;;;;;18.05;3.67;;;10.60;99.90;;;;;;4141034;28;20092;-72
2023/01/11 10:14:56;;;;;;;11.07;3.00;;;10.60;99.90;;;;;;4144834;28;20030;-70
2023/01/11 10:17:21;;;;;;;16.98;3.47;;;10.60;99.90;;;;;;4143202;28;20031;-72
2023/01/11 10:19:31;;;;;;;18.20;3.08;;;10.60;99.90;;;;;;4138341;28;20038;-74
2023/01/11 10:21:44;;;;;;;12.52;3.13;;;10.70;99.90;;;;;;4137378;28;20084;-72
2023/01/11 10:24:02;;;;;;;17.40;3.70;;;10.60;99.90;;;;;;4129567;28;20046;-70
2023/01/11 10:26:11;;;;;;;19.88;3.67;;;10.70;99.90;;;;;;4139649;28;20042;-71
2023/01/11 10:28:30;;;;;;;18.58;4.38;;;10.60;99.90;;;;;;4128894;28;20113;-72
2023/01/11 10:33:27;;;;;;;15.18;3.03;;;10.60;99.90;;;;;;4136738;28;20035;-71
2023/01/11 10:35:58;;;;;;;13.90;3.22;;;10.60;99.90;;;;;;4136113;28;20069;-72
2023/01/11 10:41:11;;;;;;;9.68;2.53;;;10.60;99.90;;;;;;4126999;28;20037;-71
2023/01/11 10:43:20;;;;;;;10.70;2.70;;;10.60;99.90;;;;;;4135409;28;20401;-72
2023/01/11 10:45:49;;;;;;;15.02;2.78;;;10.60;99.90;;;;;;4136349;28;20511;-72
2023/01/11 10:48:04;;;;;;;12.07;2.78;;;10.60;99.90;;;;;;4121081;28;20030;-72
2023/01/11 10:50:37;;;;;;;14.88;3.70;;;10.60;99.90;;;;;;4139011;28;20470;-69
2023/01/11 10:52:54;;;;;;;19.20;3.55;;;10.70;99.90;;;;;;4136075;28;20042;-73
2023/01/11 10:54:56;;;;;;;19.60;3.38;;;10.70;99.90;;;;;;4137041;28;20038;-74
2023/01/11 10:57:21;;;;;;;13.35;2.67;;;10.80;99.90;;;;;;4138158;28;20026;-75
2023/01/11 10:59:52;;;;;;;17.25;3.17;;;10.80;99.90;;;;;;4140405;28;20382;-74
2023/01/11 11:02:20;;;;;;;17.35;3.60;;;10.80;99.90;;;;;;4121407;28;20046;-74
2023/01/11 11:04:57;;;;;;;17.48;3.47;;;10.90;99.90;;;;;;4123875;28;20056;-73
2023/01/11 11:07:20;;;;;;;12.43;2.60;;;11.00;99.90;;;;;;4135922;28;20129;-76
2023/01/11 11:09:41;;;;;;;15.98;3.65;;;11.00;99.90;;;;;;4137213;28;20504;-74
2023/01/11 11:11:52;;;;;;;13.88;3.35;;;11.10;99.90;;;;;;4120592;28;20027;-74
2023/01/11 11:14:29;;;;;;;16.10;3.40;;;11.10;99.90;;;;;;4133740;28;20030;-74
2023/01/11 11:16:40;;;;;;;13.55;2.85;;;11.10;99.90;;;;;;4089735;28;20494;-73
2023/01/11 11:18:42;;;;;;;12.90;3.53;;;11.10;99.90;;;;;;4138965;28;20026;-73
2023/01/11 11:20:45;;;;;;;14.15;2.70;;;11.10;99.90;;;;;;4140368;28;20099;-78